Terminal Aerodrome Forecast
Issued by NWS

Home | Current Version | Previous Version | Text Only | Print | Product List | Glossary On
Versions: 1 2 3 4 5 6 7 8 9 10 11 12 13
000
FTUS45 KREV 222323
TAFTRK
TAF
KTRK 222323Z 2300/2324 25005KT P6SM VCSH SCT020 BKN040
     FM230200 VRB03KT P6SM SCT030 BKN150
     FM230700 00000KT 1/2SM FZFG BKN001
     FM231600 VRB03KT P6SM FEW001
     FM232100 24007KT P6SM FEW050 BKN180=

USA.gov is the U.S. government's official web portal to all federal, state and local government web resources and services.